Time;durP1;ratioP1;P1;durP2;ratioP2;P2;SDS_P1;SDS_P2;PMS_P1;PMS_P2;Temp;Humidity;BMP_temperature;BMP_pressure;BME280_temperature;BME280_humidity;BME280_pressure;Samples;Min_cycle;Max_cycle;Signal;HPM_P1;HPM_P2
2023/07/15 00:02:53;;;;;;;3.67;3.37;;;14.80;99.90;;;;;;8311893;28;20291;-66
2023/07/15 00:06:57;;;;;;;5.60;3.40;;;14.70;99.90;;;;;;8311948;28;20193;-66
2023/07/15 00:10:58;;;;;;;4.03;3.63;;;14.60;99.90;;;;;;8310898;28;20240;-65
2023/07/15 00:14:59;;;;;;;7.13;4.03;;;14.60;99.90;;;;;;8312033;28;20248;-65
2023/07/15 00:19:00;;;;;;;4.83;3.60;;;14.50;99.90;;;;;;8307804;28;20182;-65
2023/07/15 00:23:25;;;;;;;5.53;3.87;;;14.40;99.90;;;;;;8311007;28;20250;-66
2023/07/15 00:27:26;;;;;;;3.73;3.07;;;14.20;99.90;;;;;;8308216;28;20300;-65
2023/07/15 00:31:27;;;;;;;4.03;3.63;;;14.20;99.90;;;;;;8311113;28;20202;-65
2023/07/15 00:35:29;;;;;;;6.47;4.60;;;14.10;99.90;;;;;;8310678;28;20229;-65
2023/07/15 00:39:30;;;;;;;4.20;3.80;;;14.00;1.00;;;;;;8312888;28;20269;-66
2023/07/15 00:43:59;;;;;;;4.47;4.07;;;14.00;1.00;;;;;;8315617;28;20190;-65
2023/07/15 00:48:19;;;;;;;4.07;3.63;;;14.00;1.00;;;;;;8318459;28;20193;-64
2023/07/15 00:52:20;;;;;;;6.10;4.87;;;13.90;1.00;;;;;;8314190;28;20206;-65
2023/07/15 00:56:25;;;;;;;4.83;4.20;;;13.90;1.00;;;;;;8317973;28;20182;-65
2023/07/15 01:00:26;;;;;;;6.73;4.07;;;13.90;1.00;;;;;;8320600;28;20190;-65
2023/07/15 01:04:27;;;;;;;4.67;3.87;;;13.90;1.00;;;;;;8317124;28;20221;-66
2023/07/15 01:08:28;;;;;;;4.37;3.97;;;13.80;1.00;;;;;;8319485;28;20224;-65
2023/07/15 01:12:29;;;;;;;4.70;4.30;;;13.80;1.00;;;;;;8315448;28;20224;-64
2023/07/15 01:16:30;;;;;;;6.00;4.30;;;13.80;1.00;;;;;;8319590;28;20201;-65
2023/07/15 01:20:32;;;;;;;5.30;4.17;;;13.80;1.20;;;;;;8318309;28;20194;-65
2023/07/15 01:24:34;;;;;;;5.10;4.30;;;13.70;38.30;;;;;;8316432;28;20220;-65
2023/07/15 01:28:36;;;;;;;4.73;3.97;;;13.60;13.90;;;;;;8315140;28;20245;-67
2023/07/15 01:32:37;;;;;;;5.40;4.43;;;13.50;40.00;;;;;;8317634;28;20214;-65
2023/07/15 01:36:38;;;;;;;6.10;5.50;;;13.50;99.90;;;;;;8317793;28;20189;-66
2023/07/15 01:40:39;;;;;;;7.13;5.07;;;13.50;99.90;;;;;;8316890;28;20186;-66
2023/07/15 01:44:40;;;;;;;5.30;4.70;;;13.60;99.90;;;;;;8316420;28;20227;-64
2023/07/15 01:48:41;;;;;;;5.70;4.90;;;13.60;99.90;;;;;;8317240;28;20312;-65
2023/07/15 01:52:42;;;;;;;5.53;4.97;;;13.60;1.00;;;;;;8303636;28;20312;-66
2023/07/15 01:56:42;;;;;;;5.07;4.67;;;13.60;1.00;;;;;;8316043;28;20181;-65
2023/07/15 02:00:43;;;;;;;6.23;5.30;;;13.60;59.80;;;;;;8315293;28;20188;-65
2023/07/15 02:04:44;;;;;;;6.20;5.57;;;13.60;45.50;;;;;;8307627;28;20241;-65
2023/07/15 02:08:49;;;;;;;11.37;6.33;;;13.70;99.90;;;;;;8314202;28;20252;-66
2023/07/15 02:12:50;;;;;;;8.43;6.43;;;13.70;99.90;;;;;;8329034;28;20217;-66
2023/07/15 02:16:50;;;;;;;8.13;5.80;;;13.70;99.90;;;;;;8313211;28;20190;-66
2023/07/15 02:20:52;;;;;;;6.53;5.67;;;13.70;99.90;;;;;;8319206;28;20253;-67
2023/07/15 02:24:53;;;;;;;8.20;6.33;;;13.70;99.90;;;;;;8313104;28;20300;-65
2023/07/15 02:28:55;;;;;;;7.53;6.37;;;13.80;1.00;;;;;;8316560;28;20196;-66
2023/07/15 02:32:59;;;;;;;8.30;6.17;;;13.80;1.00;;;;;;8311136;28;20323;-66
2023/07/15 02:37:01;;;;;;;8.07;6.80;;;13.80;99.90;;;;;;8330673;28;20182;-67
2023/07/15 02:41:01;;;;;;;7.63;6.47;;;13.80;99.90;;;;;;8311451;28;20200;-66
2023/07/15 02:45:04;;;;;;;8.40;6.70;;;13.90;79.30;;;;;;8314657;28;20210;-66
2023/07/15 02:49:06;;;;;;;7.67;6.80;;;13.90;1.00;;;;;;8312336;28;20182;-66
2023/07/15 02:53:07;;;;;;;8.27;6.93;;;13.90;55.00;;;;;;8313790;28;20202;-65
2023/07/15 02:57:08;;;;;;;9.83;6.90;;;14.00;99.90;;;;;;8314130;28;20186;-66
2023/07/15 03:01:09;;;;;;;8.30;6.77;;;14.00;25.00;;;;;;8309468;28;20205;-64
2023/07/15 03:05:10;;;;;;;6.57;5.90;;;14.00;20.80;;;;;;8323951;28;20249;-65
2023/07/15 03:09:11;;;;;;;8.13;6.57;;;14.10;1.00;;;;;;8325109;28;20186;-66
2023/07/15 03:13:12;;;;;;;7.37;6.67;;;14.20;1.00;;;;;;8310795;28;20309;-65
2023/07/15 03:17:15;;;;;;;9.07;7.47;;;14.20;99.90;;;;;;8317272;28;20222;-67
2023/07/15 03:21:15;;;;;;;7.70;5.93;;;14.30;25.80;;;;;;8325536;28;20278;-67
2023/07/15 03:25:19;;;;;;;7.83;6.77;;;14.40;1.00;;;;;;8307741;28;20183;-67
2023/07/15 03:29:22;;;;;;;8.70;7.30;;;14.50;99.90;;;;;;8326580;28;20189;-67
2023/07/15 03:33:24;;;;;;;10.10;7.00;;;15.00;99.90;;;;;;8310624;28;20308;-67
2023/07/15 03:37:25;;;;;;;7.17;5.67;;;15.40;98.70;;;;;;8307457;28;20182;-67
2023/07/15 03:41:26;;;;;;;8.00;6.60;;;15.40;1.00;;;;;;8312304;28;20190;-67
2023/07/15 03:45:27;;;;;;;8.40;7.10;;;15.40;1.00;;;;;;8310717;28;20194;-67
2023/07/15 03:49:28;;;;;;;7.40;5.93;;;15.60;1.00;;;;;;8319301;28;20202;-68
2023/07/15 03:53:28;;;;;;;7.77;5.77;;;16.20;99.90;;;;;;8311742;28;20254;-65
2023/07/15 03:57:29;;;;;;;6.63;5.17;;;17.20;99.90;;;;;;8314501;28;20186;-67
2023/07/15 04:01:31;;;;;;;10.33;5.67;;;18.20;99.90;;;;;;8310095;28;20242;-67
2023/07/15 04:05:32;;;;;;;5.93;4.63;;;18.70;19.10;;;;;;8311856;28;20267;-68
2023/07/15 04:09:32;;;;;;;6.07;4.83;;;18.60;1.00;;;;;;8312960;28;20190;-68
2023/07/15 04:13:33;;;;;;;4.80;4.30;;;18.20;1.00;;;;;;8309627;28;20284;-67
2023/07/15 04:17:34;;;;;;;7.27;5.50;;;18.30;1.00;;;;;;8313162;28;20206;-68
2023/07/15 04:21:36;;;;;;;7.77;5.10;;;18.80;1.00;;;;;;8311265;28;20191;-67
2023/07/15 04:25:38;;;;;;;6.50;4.57;;;19.50;1.00;;;;;;8310451;28;20194;-62
2023/07/15 04:29:39;;;;;;;5.63;4.73;;;19.60;1.00;;;;;;8303406;28;20228;-64
2023/07/15 04:33:39;;;;;;;7.60;5.63;;;20.60;1.00;;;;;;8311080;28;20210;-63
2023/07/15 04:37:40;;;;;;;6.73;5.17;;;21.70;1.00;;;;;;8307977;28;20249;-66
2023/07/15 04:41:41;;;;;;;6.80;4.53;;;22.50;1.00;;;;;;8311464;28;20194;-65
2023/07/15 04:45:42;;;;;;;6.57;5.33;;;23.30;1.00;;;;;;8311337;28;20193;-65
2023/07/15 04:49:43;;;;;;;7.87;4.40;;;23.80;1.00;;;;;;8301594;28;20281;-66
2023/07/15 04:53:44;;;;;;;5.47;4.17;;;24.40;1.00;;;;;;8300169;28;20218;-66
2023/07/15 04:57:44;;;;;;;9.27;5.27;;;24.80;1.00;;;;;;8311967;28;20254;-65
2023/07/15 05:01:45;;;;;;;6.13;4.50;;;24.90;1.00;;;;;;8310643;28;20175;-64
2023/07/15 05:05:46;;;;;;;8.03;4.63;;;25.00;1.00;;;;;;8324008;28;20225;-66
2023/07/15 05:09:49;;;;;;;6.97;4.10;;;25.00;1.00;;;;;;8313343;28;20268;-66
2023/07/15 05:13:49;;;;;;;4.10;3.40;;;24.90;99.90;;;;;;8311468;28;20210;-66
2023/07/15 05:17:50;;;;;;;6.23;4.30;;;24.60;1.00;;;;;;8311845;28;20209;-66
2023/07/15 05:21:51;;;;;;;6.97;4.00;;;23.90;1.00;;;;;;8310921;28;20183;-65
2023/07/15 05:25:52;;;;;;;6.13;3.80;;;23.30;1.00;;;;;;8316541;28;20266;-65
2023/07/15 05:29:52;;;;;;;6.13;3.83;;;22.80;1.00;;;;;;8311418;28;20233;-66
2023/07/15 05:33:56;;;;;;;5.93;4.17;;;22.60;1.00;;;;;;8316363;28;20315;-65
2023/07/15 05:37:57;;;;;;;5.90;4.20;;;22.40;1.00;;;;;;8314581;28;20182;-65
2023/07/15 05:41:57;;;;;;;6.10;3.73;;;22.50;1.00;;;;;;8312988;28;20198;-64
2023/07/15 05:45:58;;;;;;;5.03;3.70;;;22.60;1.00;;;;;;8317685;28;20281;-66
2023/07/15 05:49:59;;;;;;;6.90;3.50;;;22.70;1.00;;;;;;8319898;28;20209;-65
2023/07/15 05:54:00;;;;;;;5.77;3.63;;;22.60;1.00;;;;;;8327712;28;20202;-65
2023/07/15 05:58:01;;;;;;;7.03;3.80;;;22.60;1.00;;;;;;8314398;28;20178;-66
2023/07/15 06:02:02;;;;;;;4.37;3.33;;;22.70;1.00;;;;;;8313512;28;20240;-66
2023/07/15 06:06:03;;;;;;;3.73;2.93;;;22.90;1.00;;;;;;8313030;28;20233;-66
2023/07/15 06:10:04;;;;;;;4.37;3.40;;;23.20;1.00;;;;;;8329879;28;20198;-66
2023/07/15 06:14:05;;;;;;;4.10;2.80;;;23.40;1.00;;;;;;8314282;28;20206;-67
2023/07/15 06:18:06;;;;;;;4.10;3.00;;;23.60;1.00;;;;;;8313614;28;20182;-66
2023/07/15 06:22:15;;;;;;;4.67;2.70;;;23.70;1.00;;;;;;8329341;28;20245;-66
2023/07/15 06:26:16;;;;;;;5.77;2.60;;;23.90;1.00;;;;;;8314727;28;20250;-66
2023/07/15 06:30:17;;;;;;;5.63;3.00;;;24.00;99.90;;;;;;8314955;28;20190;-66
2023/07/15 06:34:18;;;;;;;4.00;2.67;;;24.20;99.90;;;;;;8315527;28;20214;-67
2023/07/15 06:38:22;;;;;;;5.00;2.40;;;24.40;99.90;;;;;;8314581;28;20218;-65
2023/07/15 06:42:23;;;;;;;5.23;3.00;;;24.60;99.90;;;;;;8328272;28;20278;-68
2023/07/15 06:46:27;;;;;;;3.17;2.60;;;24.90;99.90;;;;;;8315410;28;20178;-66
2023/07/15 06:50:28;;;;;;;3.20;2.30;;;25.00;99.90;;;;;;8313918;28;20237;-66
2023/07/15 06:54:31;;;;;;;2.87;2.40;;;25.20;99.90;;;;;;8313216;28;20207;-69
2023/07/15 06:58:32;;;;;;;3.50;2.10;;;25.40;99.90;;;;;;8308270;28;20186;-67
2023/07/15 07:02:33;;;;;;;4.40;2.50;;;25.60;99.90;;;;;;8314802;28;20375;-68
2023/07/15 07:06:34;;;;;;;3.03;2.13;;;25.70;99.90;;;;;;8311111;28;20198;-66
2023/07/15 07:10:35;;;;;;;3.27;2.60;;;25.90;99.90;;;;;;8326953;28;20272;-65
2023/07/15 07:14:35;;;;;;;2.67;2.20;;;25.90;99.90;;;;;;8311034;28;20206;-65
2023/07/15 07:18:36;;;;;;;3.75;2.20;;;26.00;99.90;;;;;;8310759;28;20198;-66
2023/07/15 07:22:37;;;;;;;2.90;2.00;;;26.20;99.90;;;;;;8327228;28;20190;-66
2023/07/15 07:26:38;;;;;;;2.85;1.77;;;26.40;99.90;;;;;;8312236;28;20191;-66
2023/07/15 07:30:41;;;;;;;5.05;2.78;;;26.60;99.90;;;;;;8313682;28;20189;-65
2023/07/15 07:34:41;;;;;;;5.82;2.20;;;26.80;99.90;;;;;;8305310;28;20292;-66
2023/07/15 07:38:44;;;;;;;3.47;2.20;;;27.00;99.90;;;;;;8316752;28;20258;-67
2023/07/15 07:42:45;;;;;;;3.08;2.13;;;27.10;99.90;;;;;;8326987;28;20178;-66
2023/07/15 07:46:46;;;;;;;4.82;2.28;;;27.30;99.90;;;;;;8311822;28;20212;-67
2023/07/15 07:50:46;;;;;;;7.10;2.00;;;27.50;99.90;;;;;;8313273;28;20194;-66
2023/07/15 07:54:47;;;;;;;4.45;2.20;;;27.70;99.90;;;;;;8312138;28;20253;-66
2023/07/15 07:58:53;;;;;;;2.63;1.95;;;27.90;99.90;;;;;;8305876;28;20182;-68
2023/07/15 08:02:53;;;;;;;3.47;1.75;;;28.00;99.90;;;;;;8327161;28;20202;-66
2023/07/15 08:06:54;;;;;;;3.17;1.83;;;28.30;99.90;;;;;;8307951;28;20273;-67
2023/07/15 08:10:56;;;;;;;3.58;1.60;;;28.40;99.90;;;;;;8312256;28;20186;-66
2023/07/15 08:14:56;;;;;;;2.70;1.90;;;28.60;99.90;;;;;;8310443;28;20214;-66
2023/07/15 08:18:58;;;;;;;2.83;1.88;;;28.80;99.90;;;;;;8310895;28;20277;-65
2023/07/15 08:22:59;;;;;;;1.98;1.58;;;29.00;99.90;;;;;;8311745;28;20273;-66
2023/07/15 08:27:00;;;;;;;2.53;1.70;;;29.10;99.90;;;;;;8313305;28;20186;-66
2023/07/15 08:31:01;;;;;;;2.35;1.42;;;29.30;99.90;;;;;;8326839;28;20209;-66
2023/07/15 08:35:04;;;;;;;2.90;1.45;;;29.50;99.90;;;;;;8310682;28;20210;-65
2023/07/15 08:39:05;;;;;;;2.25;1.50;;;29.60;99.90;;;;;;8327034;28;20167;-66
2023/07/15 08:43:05;;;;;;;2.80;1.15;;;29.60;99.90;;;;;;8310582;28;20277;-66
2023/07/15 08:47:07;;;;;;;4.03;1.80;;;29.60;99.90;;;;;;8305460;28;20243;-65
2023/07/15 08:51:08;;;;;;;2.10;1.30;;;29.70;99.90;;;;;;8311831;28;20189;-65
2023/07/15 08:55:09;;;;;;;2.10;1.50;;;29.70;99.90;;;;;;8315468;28;20234;-66
2023/07/15 08:59:12;;;;;;;2.10;1.17;;;29.80;99.90;;;;;;8312314;28;20186;-66
2023/07/15 09:03:13;;;;;;;1.80;1.30;;;30.00;99.90;;;;;;8313016;28;20209;-67
2023/07/15 09:07:14;;;;;;;2.40;1.50;;;30.20;99.90;;;;;;8312505;28;20217;-67
2023/07/15 09:11:15;;;;;;;3.50;1.58;;;30.30;99.90;;;;;;8315415;28;20190;-66
2023/07/15 09:15:15;;;;;;;2.47;1.70;;;30.50;99.90;;;;;;8318698;28;20296;-67
2023/07/15 09:19:21;;;;;;;3.28;1.63;;;30.60;99.90;;;;;;8317921;28;20270;-67
2023/07/15 09:23:30;;;;;;;2.88;1.52;;;30.80;99.90;;;;;;8331520;28;20190;-67
2023/07/15 09:27:30;;;;;;;2.30;1.60;;;30.70;99.90;;;;;;8316570;28;20190;-66
2023/07/15 09:31:31;;;;;;;2.25;1.30;;;30.80;99.90;;;;;;8310549;28;20217;-69
2023/07/15 09:35:36;;;;;;;3.45;1.88;;;31.00;99.90;;;;;;8315506;28;20211;-67
2023/07/15 09:39:37;;;;;;;2.75;1.48;;;31.10;99.90;;;;;;8315260;28;20178;-66
2023/07/15 09:43:49;;;;;;;2.20;1.38;;;31.20;99.90;;;;;;8318656;28;20197;-67
2023/07/15 09:47:50;;;;;;;2.45;1.63;;;31.30;99.90;;;;;;8332317;28;20183;-65
2023/07/15 09:51:51;;;;;;;2.97;1.52;;;31.30;99.90;;;;;;8317262;28;20195;-66
2023/07/15 09:55:52;;;;;;;2.03;1.52;;;31.40;99.90;;;;;;8306780;28;20174;-66
2023/07/15 09:59:54;;;;;;;2.63;1.75;;;31.50;99.90;;;;;;8314514;28;20183;-67
2023/07/15 10:04:26;;;;;;;2.92;1.88;;;31.60;99.90;;;;;;8315173;28;20236;-67
2023/07/15 10:08:29;;;;;;;3.08;1.48;;;31.50;99.90;;;;;;8327823;28;20191;-67
2023/07/15 10:12:30;;;;;;;1.50;1.40;;;31.50;99.90;;;;;;8312603;28;20213;-68
2023/07/15 10:16:36;;;;;;;2.53;1.23;;;31.60;99.90;;;;;;8312810;28;20198;-67
2023/07/15 10:20:53;;;;;;;1.52;1.42;;;31.70;99.90;;;;;;8315300;28;20189;-68
2023/07/15 10:24:57;;;;;;;2.47;1.42;;;31.80;99.90;;;;;;8311256;28;20194;-66
2023/07/15 10:28:59;;;;;;;1.65;1.40;;;32.00;99.90;;;;;;8314724;28;20175;-65
2023/07/15 10:33:08;;;;;;;1.48;1.38;;;32.10;99.90;;;;;;8313091;28;20213;-67
2023/07/15 10:37:11;;;;;;;1.73;1.15;;;32.20;99.90;;;;;;8315868;28;20171;-65
2023/07/15 10:41:13;;;;;;;2.75;1.40;;;32.20;99.90;;;;;;8319125;28;20216;-66
2023/07/15 10:45:16;;;;;;;3.00;1.33;;;32.30;99.90;;;;;;8312625;28;20187;-66
2023/07/15 10:49:18;;;;;;;1.98;1.45;;;32.40;99.90;;;;;;8309969;28;20186;-65
2023/07/15 10:53:23;;;;;;;2.28;1.20;;;32.40;99.90;;;;;;8312131;28;20222;-67
2023/07/15 10:57:24;;;;;;;2.65;1.50;;;32.60;99.90;;;;;;8313562;28;20185;-66
2023/07/15 11:01:25;;;;;;;2.95;1.33;;;32.60;99.90;;;;;;8310644;28;20255;-66
2023/07/15 11:05:26;;;;;;;1.38;1.25;;;32.70;99.90;;;;;;8310689;28;20309;-69
2023/07/15 11:09:27;;;;;;;1.90;1.30;;;32.70;99.90;;;;;;8313567;28;20407;-68
2023/07/15 11:13:34;;;;;;;1.60;1.27;;;32.70;99.90;;;;;;8314236;28;20307;-67
2023/07/15 11:17:40;;;;;;;2.58;1.35;;;32.70;99.90;;;;;;8311870;28;20246;-66
2023/07/15 11:21:44;;;;;;;1.73;1.38;;;32.70;99.90;;;;;;8312180;28;20193;-69
2023/07/15 11:25:45;;;;;;;1.95;1.27;;;32.70;99.90;;;;;;8311289;28;20195;-66
2023/07/15 11:29:55;;;;;;;2.05;1.40;;;32.80;99.90;;;;;;8327300;28;20194;-63
2023/07/15 11:33:57;;;;;;;2.60;1.50;;;32.90;99.90;;;;;;8312409;28;20198;-66
2023/07/15 11:37:59;;;;;;;1.95;1.50;;;33.10;99.90;;;;;;8328195;28;20225;-67
2023/07/15 11:42:00;;;;;;;3.30;1.67;;;33.20;99.90;;;;;;8310653;28;20250;-64
2023/07/15 11:46:01;;;;;;;2.75;1.55;;;33.20;99.90;;;;;;8313381;28;20186;-73
2023/07/15 11:50:03;;;;;;;1.67;1.23;;;33.20;99.90;;;;;;8326347;28;20274;-66
2023/07/15 11:54:10;;;;;;;2.13;1.30;;;33.30;99.90;;;;;;8310171;28;20222;-66
2023/07/15 11:58:11;;;;;;;2.03;1.60;;;33.30;99.90;;;;;;8304557;28;20179;-67
2023/07/15 12:02:15;;;;;;;1.83;1.10;;;33.40;99.90;;;;;;8312031;28;20232;-66
2023/07/15 12:06:17;;;;;;;2.10;1.40;;;33.50;99.90;;;;;;8304728;28;20230;-68
2023/07/15 12:10:19;;;;;;;1.85;1.30;;;33.50;99.90;;;;;;8313751;28;20186;-65
2023/07/15 12:14:20;;;;;;;2.85;1.00;;;33.50;99.90;;;;;;8310528;28;20210;-67
2023/07/15 12:18:21;;;;;;;1.80;1.55;;;33.50;99.90;;;;;;8312754;28;20202;-65
2023/07/15 12:22:22;;;;;;;2.22;1.58;;;33.60;99.90;;;;;;8325283;28;20182;-66
2023/07/15 12:26:23;;;;;;;1.45;1.30;;;33.40;99.90;;;;;;8312903;28;20185;-68
2023/07/15 12:30:24;;;;;;;1.85;1.52;;;33.40;99.90;;;;;;8310699;28;20281;-66
2023/07/15 12:34:25;;;;;;;1.73;1.13;;;33.50;99.90;;;;;;8312087;28;20209;-69
2023/07/15 12:38:26;;;;;;;4.28;1.48;;;33.50;99.90;;;;;;8315211;28;20182;-66
2023/07/15 12:42:26;;;;;;;1.70;1.45;;;33.60;99.90;;;;;;8319623;28;20206;-66
2023/07/15 12:46:27;;;;;;;2.22;1.55;;;33.60;99.90;;;;;;8316473;28;20187;-68
2023/07/15 12:50:28;;;;;;;4.85;1.70;;;33.60;99.90;;;;;;8316150;28;20187;-69
2023/07/15 12:54:29;;;;;;;3.00;1.20;;;33.80;99.90;;;;;;8317633;28;20233;-68
2023/07/15 12:58:30;;;;;;;1.92;1.30;;;33.80;99.90;;;;;;8321475;28;20209;-69
2023/07/15 13:02:31;;;;;;;3.53;1.42;;;33.70;99.90;;;;;;8321370;28;20200;-68
2023/07/15 13:06:31;;;;;;;1.63;1.40;;;33.70;99.90;;;;;;8315194;28;20333;-67
2023/07/15 13:10:32;;;;;;;2.25;1.70;;;33.70;99.90;;;;;;8317667;28;20206;-68
2023/07/15 13:14:33;;;;;;;3.30;1.50;;;33.90;99.90;;;;;;8314171;28;20291;-67
2023/07/15 13:18:34;;;;;;;2.00;1.30;;;34.00;99.90;;;;;;8317099;28;20183;-69
2023/07/15 13:22:36;;;;;;;3.00;1.50;;;34.00;99.90;;;;;;8331805;28;20209;-67
2023/07/15 13:26:40;;;;;;;2.15;1.50;;;34.20;99.90;;;;;;8320799;28;20191;-69
2023/07/15 13:30:41;;;;;;;1.67;1.38;;;34.20;99.90;;;;;;8316365;28;20194;-68
2023/07/15 13:34:43;;;;;;;1.90;1.35;;;34.30;99.90;;;;;;8331672;28;20267;-67
2023/07/15 13:38:46;;;;;;;2.00;1.20;;;34.40;99.90;;;;;;8331228;28;20191;-70
2023/07/15 13:42:49;;;;;;;3.08;1.70;;;34.50;99.90;;;;;;8315579;28;20180;-67
2023/07/15 13:46:50;;;;;;;1.88;1.33;;;34.50;99.90;;;;;;8331025;28;20218;-68
2023/07/15 13:50:51;;;;;;;1.75;1.58;;;34.50;99.90;;;;;;8317133;28;20186;-69
2023/07/15 13:54:52;;;;;;;2.08;1.77;;;34.40;99.90;;;;;;8322907;28;20220;-73
2023/07/15 13:58:53;;;;;;;2.15;1.25;;;34.40;99.90;;;;;;8314362;28;20189;-68
2023/07/15 14:02:54;;;;;;;1.58;1.30;;;34.40;99.90;;;;;;8312989;28;20217;-71
2023/07/15 14:06:57;;;;;;;2.97;1.30;;;34.50;99.90;;;;;;8330646;28;20190;-69
2023/07/15 14:10:58;;;;;;;1.85;1.25;;;34.50;99.90;;;;;;8330580;28;20182;-67
2023/07/15 14:14:59;;;;;;;1.50;1.20;;;34.40;99.90;;;;;;8314397;28;20203;-68
2023/07/15 14:19:00;;;;;;;1.63;1.50;;;34.40;99.90;;;;;;8313538;28;20225;-69
2023/07/15 14:23:00;;;;;;;2.83;2.60;;;34.50;99.90;;;;;;8313065;28;20291;-68
2023/07/15 14:27:01;;;;;;;1.55;1.45;;;34.60;99.90;;;;;;8316560;28;20208;-67
2023/07/15 14:31:02;;;;;;;2.33;1.60;;;34.70;99.90;;;;;;8310447;28;20226;-68
2023/07/15 14:35:03;;;;;;;5.03;4.63;;;34.70;99.90;;;;;;8314791;28;20242;-69
2023/07/15 14:39:04;;;;;;;2.70;1.30;;;34.80;99.90;;;;;;8315858;28;20195;-65
2023/07/15 14:43:05;;;;;;;3.00;1.30;;;34.80;99.90;;;;;;8302423;28;20191;-67
2023/07/15 14:47:06;;;;;;;2.72;1.30;;;34.70;99.90;;;;;;8308507;28;20182;-65
2023/07/15 14:51:07;;;;;;;2.50;1.58;;;34.70;99.90;;;;;;8305102;28;20187;-66
2023/07/15 14:55:08;;;;;;;3.17;1.55;;;34.70;99.90;;;;;;8297347;28;20227;-69
2023/07/15 14:59:18;;;;;;;2.90;1.50;;;34.60;99.90;;;;;;8301815;28;20226;-70
2023/07/15 15:03:19;;;;;;;1.95;1.20;;;34.70;99.90;;;;;;8298619;28;20220;-68
2023/07/15 15:07:26;;;;;;;1.73;1.27;;;34.70;99.90;;;;;;8305605;28;20190;-69
2023/07/15 15:11:28;;;;;;;6.05;1.40;;;34.70;99.90;;;;;;8288464;28;20198;-69
2023/07/15 15:15:29;;;;;;;3.42;1.30;;;34.70;99.90;;;;;;8299777;28;20232;-66
2023/07/15 15:19:31;;;;;;;3.15;1.35;;;34.80;99.90;;;;;;8298097;28;20252;-68
2023/07/15 15:23:32;;;;;;;1.40;1.20;;;34.80;99.90;;;;;;8294000;28;20186;-73
2023/07/15 15:27:33;;;;;;;1.50;1.10;;;34.70;99.90;;;;;;8306183;28;20186;-71
2023/07/15 15:31:33;;;;;;;2.00;1.33;;;34.70;99.90;;;;;;8317250;28;20259;-68
2023/07/15 15:35:37;;;;;;;2.10;1.42;;;34.60;99.90;;;;;;8305575;28;20230;-68
2023/07/15 15:39:41;;;;;;;1.80;1.30;;;34.60;99.90;;;;;;8299579;28;20191;-67
2023/07/15 15:43:42;;;;;;;1.75;1.30;;;34.70;99.90;;;;;;8300840;28;20226;-66
2023/07/15 15:47:43;;;;;;;3.30;1.20;;;34.60;99.90;;;;;;8302570;28;20183;-68
2023/07/15 15:51:44;;;;;;;2.78;1.20;;;34.50;99.90;;;;;;8298594;28;20193;-65
2023/07/15 15:55:44;;;;;;;1.77;1.20;;;34.50;99.90;;;;;;8305273;28;20245;-66
2023/07/15 15:59:45;;;;;;;1.30;1.20;;;34.40;99.90;;;;;;8293532;28;20179;-66
2023/07/15 16:03:46;;;;;;;1.98;1.15;;;34.40;99.90;;;;;;8293392;28;20225;-66
2023/07/15 16:07:47;;;;;;;3.35;1.30;;;34.20;99.90;;;;;;8295192;28;20437;-64
2023/07/15 16:11:48;;;;;;;3.13;1.25;;;34.10;99.90;;;;;;8291774;28;20189;-66
2023/07/15 16:15:49;;;;;;;5.22;1.33;;;33.90;99.90;;;;;;8308497;28;20232;-65
2023/07/15 16:19:53;;;;;;;1.25;1.10;;;33.70;99.90;;;;;;8296384;28;20241;-66
2023/07/15 16:23:54;;;;;;;2.88;1.45;;;33.80;99.90;;;;;;8296789;28;20226;-66
2023/07/15 16:27:58;;;;;;;2.17;1.40;;;33.90;99.90;;;;;;8292406;28;20197;-68
2023/07/15 16:31:59;;;;;;;3.05;1.30;;;33.90;99.90;;;;;;8314813;28;20305;-66
2023/07/15 16:36:01;;;;;;;2.45;1.23;;;33.80;99.90;;;;;;8274045;28;20236;-66
2023/07/15 16:40:03;;;;;;;1.77;1.33;;;33.70;99.90;;;;;;8298011;28;20277;-66
2023/07/15 16:44:04;;;;;;;4.10;1.38;;;33.70;99.90;;;;;;8291103;28;20183;-66
2023/07/15 16:48:05;;;;;;;3.15;1.08;;;33.70;99.90;;;;;;8294620;28;20255;-66
2023/07/15 16:52:10;;;;;;;1.67;1.20;;;33.60;99.90;;;;;;8292527;28;20229;-66
2023/07/15 16:56:11;;;;;;;2.20;1.23;;;33.60;99.90;;;;;;8300639;28;20186;-67
2023/07/15 17:00:12;;;;;;;2.60;1.35;;;33.50;99.90;;;;;;8288711;28;20178;-66
2023/07/15 17:04:13;;;;;;;1.85;1.40;;;33.50;99.90;;;;;;8291574;28;20229;-66
2023/07/15 17:08:14;;;;;;;2.15;1.10;;;33.40;99.90;;;;;;8295573;28;20191;-66
2023/07/15 17:12:15;;;;;;;1.33;1.23;;;33.40;99.90;;;;;;8296800;28;20249;-66
2023/07/15 17:16:21;;;;;;;3.88;1.30;;;33.40;99.90;;;;;;8295109;28;20241;-65
2023/07/15 17:20:22;;;;;;;2.75;1.52;;;33.30;99.90;;;;;;8302863;28;20186;-66
2023/07/15 17:24:26;;;;;;;2.88;1.00;;;33.30;99.90;;;;;;8301070;28;20182;-66
2023/07/15 17:28:27;;;;;;;7.70;1.30;;;33.80;99.90;;;;;;8302586;28;20191;-67
2023/07/15 17:32:28;;;;;;;12.43;1.73;;;34.60;99.90;;;;;;8303843;28;20210;-67
2023/07/15 17:36:29;;;;;;;12.80;2.35;;;35.40;99.90;;;;;;8307091;28;20189;-66
2023/07/15 17:40:33;;;;;;;11.88;1.92;;;36.00;99.90;;;;;;8304953;28;20195;-66
2023/07/15 17:44:39;;;;;;;10.88;1.63;;;36.50;99.90;;;;;;8298559;28;20187;-66
2023/07/15 17:48:40;;;;;;;14.70;2.47;;;36.80;99.90;;;;;;8301822;28;20313;-66
2023/07/15 17:52:41;;;;;;;8.65;1.92;;;37.20;99.90;;;;;;8295173;28;20238;-67
2023/07/15 17:56:42;;;;;;;9.82;1.67;;;37.30;99.90;;;;;;8305290;28;20207;-67
2023/07/15 18:00:43;;;;;;;9.63;1.88;;;37.50;99.90;;;;;;8300008;28;20183;-67
2023/07/15 18:04:48;;;;;;;6.07;1.63;;;37.50;99.90;;;;;;8295988;28;20214;-65
2023/07/15 18:08:49;;;;;;;4.38;1.63;;;37.40;99.90;;;;;;8285228;28;20221;-67
2023/07/15 18:12:50;;;;;;;5.95;1.60;;;37.30;99.90;;;;;;8299380;28;20234;-67
2023/07/15 18:16:55;;;;;;;3.65;1.50;;;36.80;99.90;;;;;;8296188;28;20179;-67
2023/07/15 18:21:00;;;;;;;4.47;1.77;;;36.50;99.90;;;;;;8298477;28;20192;-67
2023/07/15 18:25:01;;;;;;;2.53;1.23;;;35.90;99.90;;;;;;8294432;28;20194;-66
2023/07/15 18:29:01;;;;;;;1.60;1.08;;;34.80;99.90;;;;;;8297327;28;20198;-67
2023/07/15 18:33:05;;;;;;;2.65;1.10;;;33.80;99.90;;;;;;8300315;28;20273;-66
2023/07/15 18:37:15;;;;;;;1.42;1.05;;;32.90;99.90;;;;;;8302052;28;20190;-65
2023/07/15 18:41:15;;;;;;;2.22;1.27;;;32.20;99.90;;;;;;8302530;28;20198;-66
2023/07/15 18:45:17;;;;;;;3.75;1.58;;;31.80;99.90;;;;;;8298479;28;20194;-66
2023/07/15 18:49:18;;;;;;;3.47;1.52;;;31.50;99.90;;;;;;8302293;28;20201;-65
2023/07/15 18:53:19;;;;;;;3.28;1.45;;;31.00;99.90;;;;;;8305714;28;20214;-65
2023/07/15 18:57:20;;;;;;;1.65;1.30;;;30.30;99.90;;;;;;8302845;28;20198;-66
2023/07/15 19:01:21;;;;;;;2.05;1.52;;;29.60;99.90;;;;;;8300428;28;20178;-66
2023/07/15 19:05:21;;;;;;;2.65;1.67;;;29.00;99.90;;;;;;8296177;28;20301;-66
2023/07/15 19:09:24;;;;;;;2.47;1.83;;;28.50;99.90;;;;;;8295610;28;20190;-65
2023/07/15 19:13:26;;;;;;;1.70;1.60;;;28.10;99.90;;;;;;8285757;28;20260;-65
2023/07/15 19:17:27;;;;;;;2.42;1.50;;;27.70;99.90;;;;;;8303845;28;20183;-64
2023/07/15 19:21:28;;;;;;;2.67;1.60;;;27.30;99.90;;;;;;8303333;28;20182;-66
2023/07/15 19:25:29;;;;;;;2.00;1.80;;;26.90;99.90;;;;;;8299842;28;20277;-66
2023/07/15 19:29:33;;;;;;;2.63;1.90;;;26.60;99.90;;;;;;8305300;28;20290;-65
2023/07/15 19:33:34;;;;;;;2.23;1.70;;;26.30;99.90;;;;;;8302787;28;20343;-67
2023/07/15 19:37:35;;;;;;;3.17;1.80;;;26.00;99.90;;;;;;8319783;28;20183;-65
2023/07/15 19:41:36;;;;;;;5.40;2.00;;;25.70;99.90;;;;;;8299863;28;20182;-69
2023/07/15 19:45:37;;;;;;;2.77;2.00;;;25.60;99.90;;;;;;8300770;28;20186;-66
2023/07/15 19:49:38;;;;;;;2.70;1.73;;;25.40;99.90;;;;;;8302365;28;20203;-63
2023/07/15 19:53:40;;;;;;;2.43;1.83;;;25.20;99.90;;;;;;8298238;28;20213;-66
2023/07/15 19:57:40;;;;;;;2.60;1.80;;;25.00;99.90;;;;;;8294161;28;20179;-66
2023/07/15 20:01:41;;;;;;;3.23;2.00;;;24.90;99.90;;;;;;8301661;28;20186;-66
2023/07/15 20:05:44;;;;;;;2.10;1.90;;;24.80;99.90;;;;;;8302754;28;20265;-67
2023/07/15 20:09:45;;;;;;;5.50;2.13;;;24.70;99.90;;;;;;8297450;28;20243;-66
2023/07/15 20:13:45;;;;;;;2.80;2.20;;;24.50;99.90;;;;;;8293335;28;20288;-66
2023/07/15 20:17:49;;;;;;;3.10;2.60;;;24.50;99.90;;;;;;8286385;28;20277;-67
2023/07/15 20:21:50;;;;;;;2.70;2.10;;;24.40;99.90;;;;;;8295471;28;20187;-67
2023/07/15 20:25:51;;;;;;;2.30;2.10;;;24.40;99.90;;;;;;8294054;28;20191;-67
2023/07/15 20:29:53;;;;;;;5.40;2.47;;;24.30;99.90;;;;;;8291299;28;20222;-64
2023/07/15 20:33:54;;;;;;;3.90;2.80;;;24.20;99.90;;;;;;8296842;28;20206;-65
2023/07/15 20:37:56;;;;;;;3.77;2.40;;;24.10;99.90;;;;;;8295993;28;20194;-66
2023/07/15 20:41:57;;;;;;;4.87;2.57;;;24.10;99.90;;;;;;8294540;28;20202;-66
2023/07/15 20:45:58;;;;;;;3.17;2.60;;;24.10;99.90;;;;;;8295092;28;20187;-66
2023/07/15 20:49:59;;;;;;;4.93;2.63;;;24.10;99.90;;;;;;8292656;28;20198;-68
2023/07/15 20:54:01;;;;;;;6.93;2.90;;;24.10;99.90;;;;;;8300084;28;20268;-67
2023/07/15 20:58:02;;;;;;;9.00;4.77;;;24.00;99.90;;;;;;8305484;28;20194;-66
2023/07/15 21:02:03;;;;;;;6.33;3.10;;;24.00;99.90;;;;;;8298280;28;20218;-66